createdAt,value
2019-02-25T00:00:24.052Z,70.33
2019-02-25T00:02:52.558Z,70.49
2019-02-25T00:05:21.174Z,71.00
2019-02-25T00:07:49.681Z,71.35
2019-02-25T00:10:18.237Z,71.06
2019-02-25T00:12:46.822Z,71.84
2019-02-25T00:15:15.330Z,72.05
2019-02-25T00:17:43.849Z,72.32
2019-02-25T00:20:12.853Z,72.04
2019-02-25T00:22:41.414Z,72.64
2019-02-25T00:25:14.064Z,72.22
2019-02-25T00:27:42.584Z,72.48
2019-02-25T00:30:15.523Z,72.60
2019-02-25T00:32:44.037Z,73.38
2019-02-25T00:35:12.588Z,72.41
2019-02-25T00:37:41.105Z,72.93
2019-02-25T00:40:14.510Z,72.33
2019-02-25T00:42:43.029Z,72.45
2019-02-25T00:45:13.349Z,72.61
2019-02-25T00:47:41.905Z,72.65
2019-02-25T00:50:15.401Z,73.30
2019-02-25T00:52:43.927Z,73.31
2019-02-25T00:55:12.558Z,73.35
2019-02-25T00:57:41.072Z,73.36
2019-02-25T01:00:12.904Z,73.41
2019-02-25T01:02:41.418Z,72.96
2019-02-25T01:05:09.938Z,73.31
2019-02-25T01:07:38.456Z,73.78
2019-02-25T01:10:09.638Z,73.83
2019-02-25T01:12:38.194Z,74.41
2019-02-25T01:15:08.312Z,74.43
2019-02-25T01:17:36.828Z,74.56
2019-02-25T01:20:10.632Z,74.41
2019-02-25T01:22:39.136Z,74.71
2019-02-25T01:25:11.920Z,74.49
2019-02-25T01:27:40.442Z,74.38
2019-02-25T01:30:11.349Z,74.21
2019-02-25T01:32:39.866Z,74.24
2019-02-25T01:35:10.777Z,73.61
2019-02-25T01:37:39.342Z,73.14
2019-02-25T01:40:10.345Z,72.78
2019-02-25T01:42:38.860Z,72.60
2019-02-25T01:45:10.165Z,72.31
2019-02-25T01:47:38.674Z,72.62
2019-02-25T01:50:09.528Z,73.26
2019-02-25T01:52:38.034Z,73.34
2019-02-25T01:55:08.541Z,73.32
2019-02-25T01:57:37.055Z,73.12
2019-02-25T02:00:16.703Z,73.34
2019-02-25T02:02:45.258Z,72.65
2019-02-25T02:05:13.762Z,72.70
2019-02-25T02:07:42.324Z,71.98
2019-02-25T02:10:15.461Z,72.00
2019-02-25T02:12:43.989Z,71.44
2019-02-25T02:15:18.381Z,71.85
2019-02-25T02:17:46.892Z,71.90
2019-02-25T02:20:19.622Z,72.43
2019-02-25T02:22:48.140Z,72.55
2019-02-25T02:25:16.656Z,72.34
2019-02-25T02:27:45.205Z,72.20
2019-02-25T02:30:21.653Z,72.30
2019-02-25T02:32:50.198Z,72.37
2019-02-25T02:35:18.716Z,71.75
2019-02-25T02:37:47.209Z,71.86
2019-02-25T02:40:15.771Z,72.43
2019-02-25T02:42:47.362Z,72.03
2019-02-25T02:45:19.044Z,72.35
2019-02-25T02:47:53.422Z,72.39
2019-02-25T02:50:23.550Z,72.87
2019-02-25T02:52:52.053Z,72.99
2019-02-25T02:55:20.566Z,72.35
2019-02-25T02:57:49.089Z,72.98
2019-02-25T03:00:18.906Z,72.83
2019-02-25T03:02:47.468Z,73.14
2019-02-25T03:05:16.771Z,73.60
2019-02-25T03:07:45.281Z,73.96
2019-02-25T03:10:18.125Z,74.56
2019-02-25T03:12:46.720Z,74.46
2019-02-25T03:15:20.378Z,74.76
2019-02-25T03:17:48.886Z,74.07
2019-02-25T03:20:17.398Z,74.28
2019-02-25T03:22:45.923Z,74.18
2019-02-25T03:25:17.985Z,74.27
2019-02-25T03:27:46.547Z,74.09
2019-02-25T03:30:20.748Z,74.14
2019-02-25T03:32:49.268Z,73.68
2019-02-25T03:35:17.780Z,72.63
2019-02-25T03:37:46.271Z,72.41
2019-02-25T03:40:17.289Z,72.14
2019-02-25T03:42:45.802Z,72.19
2019-02-25T03:45:15.852Z,71.56
2019-02-25T03:47:44.326Z,71.31
2019-02-25T03:50:12.835Z,71.63
2019-02-25T03:52:41.403Z,71.84
2019-02-25T03:55:12.517Z,71.69
2019-02-25T03:57:41.028Z,71.43
2019-02-25T04:00:15.233Z,71.55
2019-02-25T04:02:43.747Z,71.52
2019-02-25T04:05:12.298Z,71.88
2019-02-25T04:07:40.812Z,71.87
2019-02-25T04:10:11.121Z,71.97
2019-02-25T04:12:39.641Z,72.11
2019-02-25T04:15:11.219Z,72.76
2019-02-25T04:17:39.783Z,72.64
2019-02-25T04:20:11.352Z,72.82
2019-02-25T04:22:39.865Z,72.84
2019-02-25T04:25:08.377Z,72.64
2019-02-25T04:27:36.891Z,72.24
2019-02-25T04:30:08.519Z,71.87
2019-02-25T04:32:37.016Z,72.36
2019-02-25T04:35:07.726Z,72.90
2019-02-25T04:37:36.248Z,72.94
2019-02-25T04:40:06.766Z,73.45
2019-02-25T04:42:35.321Z,73.51
2019-02-25T04:45:04.632Z,73.34
2019-02-25T04:47:33.146Z,72.94
2019-02-25T04:50:01.672Z,73.07
2019-02-25T04:52:30.177Z,72.73
2019-02-25T04:54:58.748Z,72.67
2019-02-25T04:57:27.263Z,72.49
2019-02-25T04:59:55.769Z,72.68
2019-02-25T05:02:24.289Z,72.50
2019-02-25T05:04:52.794Z,73.08
2019-02-25T05:07:21.351Z,72.68
2019-02-25T05:09:49.869Z,73.01
2019-02-25T05:12:18.401Z,72.47
2019-02-25T05:14:46.925Z,74.00
2019-02-25T05:17:15.445Z,74.24
2019-02-25T05:19:44.013Z,74.33
2019-02-25T05:22:12.515Z,74.19
2019-02-25T05:24:41.031Z,73.57
2019-02-25T05:27:09.585Z,73.35
2019-02-25T05:29:38.099Z,73.32
2019-02-25T05:32:06.662Z,72.50
2019-02-25T05:34:35.175Z,72.61
2019-02-25T05:37:03.686Z,72.20
2019-02-25T05:39:32.197Z,72.22
2019-02-25T05:42:00.703Z,72.04
2019-02-25T05:44:29.262Z,72.49
2019-02-25T05:46:57.784Z,72.19
2019-02-25T05:49:26.291Z,70.88
2019-02-25T05:51:54.829Z,70.12
2019-02-25T05:54:23.344Z,70.14
2019-02-25T05:56:51.907Z,70.28
2019-02-25T05:59:20.428Z,69.52
2019-02-25T06:01:48.928Z,69.06
2019-02-25T06:04:17.452Z,68.79
2019-02-25T06:06:45.959Z,68.33
2019-02-25T06:09:14.528Z,68.00
2019-02-25T06:11:43.054Z,68.74
2019-02-25T06:14:11.558Z,68.61
2019-02-25T06:16:40.084Z,69.20
2019-02-25T06:19:08.599Z,69.39
2019-02-25T06:21:37.165Z,69.16
2019-02-25T06:24:05.698Z,69.27
2019-02-25T06:26:34.212Z,69.09
2019-02-25T06:29:02.742Z,68.40
2019-02-25T06:31:31.253Z,68.38
2019-02-25T06:33:59.806Z,67.68
2019-02-25T06:36:28.318Z,66.26
2019-02-25T06:38:56.836Z,66.00
2019-02-25T06:41:25.359Z,66.14
2019-02-25T06:43:53.871Z,66.22
2019-02-25T06:46:22.427Z,65.80
2019-02-25T06:48:50.940Z,65.46
2019-02-25T06:51:19.451Z,65.44
2019-02-25T06:53:47.973Z,65.22
2019-02-25T06:56:16.500Z,65.08
2019-02-25T06:58:45.052Z,64.78
2019-02-25T07:01:13.563Z,64.22
2019-02-25T07:03:43.675Z,62.80
2019-02-25T07:06:13.837Z,62.80
2019-02-25T07:08:43.917Z,60.84
2019-02-25T07:11:17.003Z,60.84
2019-02-25T07:13:55.924Z,61.85
2019-02-25T07:16:31.765Z,61.85
2019-02-25T07:19:07.820Z,61.71
2019-02-25T07:21:37.941Z,60.85
2019-02-25T07:24:17.377Z,59.93
2019-02-25T07:26:47.506Z,60.88
2019-02-25T07:29:20.507Z,60.88
2019-02-25T07:31:50.589Z,60.00
2019-02-25T07:34:23.681Z,60.65
2019-02-25T07:37:08.836Z,60.65
2019-02-25T07:39:51.184Z,61.10
2019-02-25T07:42:24.240Z,62.18
2019-02-25T07:44:57.067Z,62.60
2019-02-25T07:47:30.114Z,61.38
2019-02-25T07:50:02.947Z,61.38
2019-02-25T07:52:33.016Z,63.11
2019-02-25T07:55:15.127Z,62.88
2019-02-25T07:57:51.272Z,62.29
2019-02-25T08:00:37.614Z,62.29
2019-02-25T08:03:10.639Z,61.81
2019-02-25T08:05:49.709Z,60.66
2019-02-25T08:08:19.793Z,60.66
2019-02-25T08:11:01.884Z,61.74
2019-02-25T08:13:34.671Z,61.02
2019-02-25T08:16:04.747Z,60.22
2019-02-25T08:18:47.075Z,60.22
2019-02-25T08:21:23.169Z,59.57
2019-02-25T08:23:53.289Z,59.70
2019-02-25T08:26:35.265Z,59.70
2019-02-25T08:29:05.388Z,58.83
2019-02-25T08:31:50.374Z,58.83
2019-02-25T08:34:26.264Z,58.75
2019-02-25T08:37:08.323Z,57.47
2019-02-25T08:39:53.528Z,57.04
2019-02-25T08:42:25.496Z,57.71
2019-02-25T08:44:55.582Z,56.37
2019-02-25T08:47:25.683Z,55.36
2019-02-25T08:49:55.391Z,55.75
2019-02-25T08:52:23.908Z,55.22
2019-02-25T08:54:52.416Z,55.11
2019-02-25T08:57:20.970Z,55.57
2019-02-25T08:59:49.479Z,54.96
2019-02-25T09:02:17.986Z,54.56
2019-02-25T09:04:46.502Z,55.09
2019-02-25T09:07:15.015Z,54.96
2019-02-25T09:09:43.596Z,53.13
2019-02-25T09:12:12.105Z,53.99
2019-02-25T09:14:40.608Z,53.17
2019-02-25T09:17:09.125Z,53.17
2019-02-25T09:19:37.638Z,52.24
2019-02-25T09:22:06.145Z,51.17
2019-02-25T09:24:34.659Z,51.01
2019-02-25T09:27:03.170Z,51.72
2019-02-25T09:29:31.678Z,51.00
2019-02-25T09:32:00.262Z,50.64
2019-02-25T09:34:28.756Z,49.00
2019-02-25T09:36:57.264Z,49.19
2019-02-25T09:39:25.849Z,49.32
2019-02-25T09:41:54.352Z,49.21
2019-02-25T09:44:22.857Z,48.47
2019-02-25T09:46:51.379Z,48.77
2019-02-25T09:49:19.892Z,49.57
2019-02-25T09:51:48.440Z,50.06
2019-02-25T09:54:16.953Z,50.78
2019-02-25T09:56:45.461Z,51.02
2019-02-25T09:59:13.986Z,49.57
2019-02-25T10:01:42.505Z,49.42
2019-02-25T10:04:11.057Z,49.08
2019-02-25T10:06:39.567Z,49.97
2019-02-25T10:09:08.069Z,49.77
2019-02-25T10:11:36.593Z,49.48
2019-02-25T10:14:05.103Z,48.43
2019-02-25T10:16:33.682Z,49.24
2019-02-25T10:19:02.191Z,47.47
2019-02-25T10:21:30.711Z,48.43
2019-02-25T10:23:59.228Z,48.58
2019-02-25T10:26:27.737Z,47.98
2019-02-25T10:28:56.289Z,50.16
2019-02-25T10:31:24.788Z,49.58
2019-02-25T10:33:53.293Z,48.65
2019-02-25T10:36:21.812Z,48.10
2019-02-25T10:38:50.317Z,49.86
2019-02-25T10:41:19.720Z,49.80
2019-02-25T10:43:49.992Z,50.50
2019-02-25T10:46:18.681Z,49.79
2019-02-25T10:48:47.872Z,49.67
2019-02-25T10:51:17.446Z,49.67
2019-02-25T10:53:47.834Z,48.09
2019-02-25T10:56:31.397Z,49.39
2019-02-25T10:59:01.869Z,49.39
2019-02-25T11:01:30.182Z,49.64
2019-02-25T11:03:58.691Z,49.64
2019-02-25T11:06:28.983Z,49.92
2019-02-25T11:09:15.785Z,50.31
2019-02-25T11:11:44.522Z,47.41
2019-02-25T11:14:13.029Z,47.44
2019-02-25T11:16:42.319Z,49.01
2019-02-25T11:19:11.809Z,46.71
2019-02-25T11:21:42.058Z,46.26
2019-02-25T11:24:10.568Z,47.28
2019-02-25T11:26:39.067Z,46.76
2019-02-25T11:29:09.357Z,46.34
2019-02-25T11:31:37.846Z,46.39
2019-02-25T11:34:08.043Z,46.71
2019-02-25T11:36:36.742Z,46.99
2019-02-25T11:39:06.931Z,44.71
2019-02-25T11:41:37.141Z,44.86
2019-02-25T11:44:06.713Z,45.64
2019-02-25T11:46:35.224Z,44.82
2019-02-25T11:49:03.748Z,44.84
2019-02-25T11:51:32.244Z,45.12
2019-02-25T11:54:00.811Z,44.36
2019-02-25T11:56:31.135Z,44.42
2019-02-25T11:58:59.720Z,45.70
2019-02-25T12:01:28.234Z,45.73
2019-02-25T12:03:56.732Z,46.05
2019-02-25T12:06:25.301Z,45.22
2019-02-25T12:08:53.809Z,44.77
2019-02-25T12:11:22.313Z,45.80
2019-02-25T12:13:50.847Z,44.85
2019-02-25T12:16:19.359Z,45.78
2019-02-25T12:18:47.911Z,45.25
2019-02-25T12:21:16.413Z,45.05
2019-02-25T12:23:44.917Z,45.54
2019-02-25T12:26:13.438Z,43.97
2019-02-25T12:28:41.947Z,43.95
2019-02-25T12:31:10.489Z,44.39
2019-02-25T12:33:39.006Z,44.97
2019-02-25T12:36:07.521Z,43.83
2019-02-25T12:38:36.022Z,42.36
2019-02-25T12:41:04.518Z,42.68
2019-02-25T12:43:33.078Z,43.79
2019-02-25T12:46:01.586Z,44.25
2019-02-25T12:48:30.093Z,44.96
2019-02-25T12:50:58.642Z,42.62
2019-02-25T12:53:27.147Z,43.64
2019-02-25T12:55:55.651Z,42.40
2019-02-25T12:58:24.206Z,44.55
2019-02-25T13:00:52.711Z,44.69
2019-02-25T13:03:21.222Z,44.92
2019-02-25T13:05:49.734Z,46.06
2019-02-25T13:08:18.245Z,47.14
2019-02-25T13:10:46.792Z,46.57
2019-02-25T13:13:15.303Z,48.27
2019-02-25T13:15:43.811Z,47.75
2019-02-25T13:18:12.339Z,48.10
2019-02-25T13:20:40.846Z,45.63
2019-02-25T13:23:09.390Z,45.59
2019-02-25T13:25:37.906Z,45.30
2019-02-25T13:28:06.415Z,45.34
2019-02-25T13:30:34.920Z,46.25
2019-02-25T13:33:03.432Z,45.17
2019-02-25T13:35:31.968Z,44.40
2019-02-25T13:38:00.472Z,44.05
2019-02-25T13:40:28.978Z,44.24
2019-02-25T13:42:57.524Z,44.38
2019-02-25T13:45:26.039Z,44.95
2019-02-25T13:47:54.570Z,43.52
2019-02-25T13:50:23.144Z,43.58
2019-02-25T13:52:51.657Z,43.98
2019-02-25T13:55:22.066Z,44.70
2019-02-25T13:57:50.575Z,44.79
2019-02-25T14:00:24.439Z,44.50
2019-02-25T14:02:53.050Z,45.99
2019-02-25T14:05:21.552Z,46.03
2019-02-25T14:07:50.114Z,46.97
2019-02-25T14:10:18.926Z,46.73
2019-02-25T14:12:47.447Z,46.16
2019-02-25T14:15:20.621Z,45.75
2019-02-25T14:17:49.127Z,47.24
2019-02-25T14:20:27.121Z,48.70
2019-02-25T14:22:55.620Z,49.34
2019-02-25T14:25:29.924Z,49.34
2019-02-25T14:27:58.745Z,48.63
2019-02-25T14:30:30.340Z,48.63
2019-02-25T14:32:58.278Z,49.70
2019-02-25T14:35:34.210Z,50.05
2019-02-25T14:38:08.332Z,50.04
2019-02-25T14:40:39.432Z,50.46
2019-02-25T14:43:06.076Z,50.36
2019-02-25T14:45:34.664Z,50.69
2019-02-25T14:48:05.397Z,50.10
2019-02-25T14:50:33.509Z,50.42
2019-02-25T14:53:03.976Z,51.10
2019-02-25T14:55:32.293Z,49.77
2019-02-25T14:58:04.537Z,49.77
2019-02-25T15:00:32.718Z,50.53
2019-02-25T15:03:01.308Z,49.50
2019-02-25T15:05:29.874Z,50.29
2019-02-25T15:07:58.662Z,50.28
2019-02-25T15:10:31.138Z,50.41
2019-02-25T15:12:59.087Z,51.15
2019-02-25T15:15:27.766Z,51.42
2019-02-25T15:17:56.290Z,50.89
2019-02-25T15:20:26.209Z,51.42
2019-02-25T15:22:55.091Z,52.07
2019-02-25T15:25:23.673Z,52.56
2019-02-25T15:27:52.198Z,52.43
2019-02-25T15:30:30.610Z,52.33
2019-02-25T15:32:59.191Z,51.81
2019-02-25T15:35:34.585Z,52.42
2019-02-25T15:38:01.985Z,53.59
2019-02-25T15:40:30.601Z,53.66
2019-02-25T15:43:10.449Z,53.22
2019-02-25T15:45:41.990Z,52.82
2019-02-25T15:48:13.279Z,53.79
2019-02-25T15:50:44.068Z,54.08
2019-02-25T15:53:15.268Z,53.18
2019-02-25T15:55:42.245Z,53.90
2019-02-25T15:58:10.860Z,53.42
2019-02-25T16:00:39.428Z,54.27
2019-02-25T16:03:09.087Z,54.17
2019-02-25T16:05:38.903Z,54.26
2019-02-25T16:08:07.651Z,54.25
2019-02-25T16:10:36.154Z,54.33
2019-02-25T16:13:09.159Z,55.02
2019-02-25T16:15:34.879Z,55.60
2019-02-25T16:18:03.389Z,56.77
2019-02-25T16:20:32.537Z,57.48
2019-02-25T16:23:02.738Z,56.49
2019-02-25T16:25:32.248Z,56.78
2019-02-25T16:28:01.254Z,56.74
2019-02-25T16:30:30.785Z,56.01
2019-02-25T16:33:00.103Z,56.89
2019-02-25T16:35:29.919Z,56.88
2019-02-25T16:38:00.335Z,58.37
2019-02-25T16:40:30.840Z,59.09
2019-02-25T16:42:59.777Z,59.02
2019-02-25T16:45:34.662Z,59.41
2019-02-25T16:47:59.444Z,59.41
2019-02-25T16:50:27.932Z,60.25
2019-02-25T16:52:56.447Z,60.16
2019-02-25T16:55:27.692Z,59.51
2019-02-25T16:57:56.822Z,59.50
2019-02-25T17:00:30.179Z,59.50
2019-02-25T17:03:03.614Z,60.28
2019-02-25T17:05:29.700Z,60.53
2019-02-25T17:07:58.219Z,60.34
2019-02-25T17:10:29.038Z,60.28
2019-02-25T17:12:57.166Z,60.22
2019-02-25T17:15:26.990Z,59.95
2019-02-25T17:17:58.379Z,60.25
2019-02-25T17:20:28.178Z,57.64
2019-02-25T17:22:56.274Z,57.97
2019-02-25T17:25:26.958Z,57.99
2019-02-25T17:27:55.128Z,58.39
2019-02-25T17:30:25.713Z,57.83
2019-02-25T17:32:54.228Z,57.74
2019-02-25T17:35:25.961Z,56.69
2019-02-25T17:37:55.666Z,57.23
2019-02-25T17:40:24.156Z,57.52
2019-02-25T17:42:54.055Z,57.52
2019-02-25T17:45:27.711Z,57.50
2019-02-25T17:47:58.249Z,57.46
2019-02-25T17:50:26.465Z,57.43
2019-02-25T17:52:54.978Z,57.14
2019-02-25T17:55:27.233Z,57.14
2019-02-25T17:57:56.471Z,57.00
2019-02-25T18:00:44.446Z,58.61
2019-02-25T18:03:12.964Z,58.89
2019-02-25T18:05:43.262Z,59.34
2019-02-25T18:08:13.246Z,61.31
2019-02-25T18:10:43.112Z,61.26
2019-02-25T18:13:13.344Z,61.26
2019-02-25T18:15:42.344Z,61.56
2019-02-25T18:18:14.085Z,62.11
2019-02-25T18:20:41.091Z,62.66
2019-02-25T18:23:10.003Z,62.74
2019-02-25T18:25:39.692Z,63.07
2019-02-25T18:28:10.591Z,63.09
2019-02-25T18:30:39.233Z,63.80
2019-02-25T18:33:08.212Z,64.62
2019-02-25T18:35:38.725Z,63.96
2019-02-25T18:38:09.280Z,63.96
2019-02-25T18:40:38.729Z,63.82
2019-02-25T18:43:07.460Z,63.14
2019-02-25T18:45:37.812Z,62.81
2019-02-25T18:48:07.202Z,62.88
2019-02-25T18:50:35.703Z,63.57
2019-02-25T18:53:04.203Z,63.57
2019-02-25T18:55:34.172Z,63.19
2019-02-25T18:58:05.079Z,63.19
2019-02-25T19:00:36.441Z,63.10
2019-02-25T19:03:05.965Z,61.93
2019-02-25T19:05:34.485Z,61.57
2019-02-25T19:08:04.765Z,61.42
2019-02-25T19:10:33.319Z,61.13
2019-02-25T19:13:02.227Z,61.13
2019-02-25T19:15:30.773Z,60.39
2019-02-25T19:17:59.282Z,59.93
2019-02-25T19:20:27.883Z,59.71
2019-02-25T19:23:00.472Z,59.96
2019-02-25T19:25:26.729Z,59.24
2019-02-25T19:27:56.611Z,59.24
2019-02-25T19:30:27.820Z,58.92
2019-02-25T19:32:55.802Z,59.30
2019-02-25T19:35:26.312Z,59.76
2019-02-25T19:37:54.634Z,58.84
2019-02-25T19:40:24.528Z,58.84
2019-02-25T19:42:54.200Z,59.81
2019-02-25T19:45:23.548Z,60.37
2019-02-25T19:47:52.157Z,60.37
2019-02-25T19:50:25.336Z,60.81
2019-02-25T19:52:53.740Z,61.57
2019-02-25T19:55:23.520Z,61.57
2019-02-25T19:57:52.127Z,61.99
2019-02-25T20:00:29.695Z,62.00
2019-02-25T20:03:05.592Z,62.00
2019-02-25T20:05:30.593Z,62.56
2019-02-25T20:07:59.104Z,62.86
2019-02-25T20:10:30.112Z,63.25
2019-02-25T20:12:58.557Z,63.52
2019-02-25T20:15:27.092Z,63.63
2019-02-25T20:17:55.589Z,64.11
2019-02-25T20:20:25.670Z,64.48
2019-02-25T20:22:54.173Z,65.68
2019-02-25T20:25:24.466Z,65.68
2019-02-25T20:27:54.978Z,65.41
2019-02-25T20:30:24.092Z,65.24
2019-02-25T20:32:53.585Z,65.24
2019-02-25T20:35:24.106Z,64.87
2019-02-25T20:37:53.749Z,64.87
2019-02-25T20:40:24.109Z,64.82
2019-02-25T20:42:53.573Z,64.99
2019-02-25T20:45:26.167Z,65.61
2019-02-25T20:47:57.268Z,65.61
2019-02-25T20:50:26.151Z,66.01
2019-02-25T20:52:56.089Z,66.51
2019-02-25T20:55:25.444Z,66.08
2019-02-25T20:57:55.093Z,66.21
2019-02-25T21:00:25.641Z,66.27
2019-02-25T21:02:54.186Z,66.45
2019-02-25T21:05:26.844Z,66.77
2019-02-25T21:07:54.941Z,66.59
2019-02-25T21:10:24.991Z,66.59
2019-02-25T21:12:54.823Z,66.42
2019-02-25T21:15:23.860Z,66.67
2019-02-25T21:17:54.411Z,66.67
2019-02-25T21:20:23.670Z,66.85
2019-02-25T21:22:54.981Z,67.16
2019-02-25T21:25:26.505Z,66.20
2019-02-25T21:27:55.275Z,66.67
2019-02-25T21:30:23.574Z,66.67
2019-02-25T21:32:54.120Z,67.05
2019-02-25T21:35:25.507Z,67.19
2019-02-25T21:37:54.560Z,66.73
2019-02-25T21:40:25.061Z,67.28
2019-02-25T21:42:56.363Z,67.28
2019-02-25T21:45:26.518Z,67.08
2019-02-25T21:47:56.690Z,67.07
2019-02-25T21:50:28.320Z,67.58
2019-02-25T21:52:55.083Z,67.58
2019-02-25T21:55:25.554Z,67.55
2019-02-25T21:57:54.939Z,67.54
2019-02-25T22:00:27.101Z,67.25
2019-02-25T22:02:56.201Z,67.51
2019-02-25T22:05:24.700Z,67.51
2019-02-25T22:07:55.357Z,67.73
2019-02-25T22:10:23.441Z,67.73
2019-02-25T22:12:52.003Z,68.18
2019-02-25T22:15:22.325Z,68.27
2019-02-25T22:17:53.223Z,67.98
2019-02-25T22:20:22.582Z,67.98
2019-02-25T22:22:54.521Z,67.94
2019-02-25T22:25:22.937Z,67.94
2019-02-25T22:27:51.422Z,67.70
2019-02-25T22:30:19.929Z,67.49
2019-02-25T22:32:48.439Z,67.49
2019-02-25T22:35:16.941Z,67.83
2019-02-25T22:37:49.157Z,68.18
2019-02-25T22:40:17.303Z,68.18
2019-02-25T22:42:47.875Z,68.18
2019-02-25T22:45:19.013Z,68.11
2019-02-25T22:47:47.566Z,68.16
2019-02-25T22:50:16.107Z,68.08
2019-02-25T22:52:44.609Z,68.30
2019-02-25T22:55:15.381Z,68.66
2019-02-25T22:57:46.088Z,69.26
2019-02-25T23:00:33.507Z,69.23
2019-02-25T23:05:29.623Z,70.13
2019-02-25T23:07:58.121Z,70.13
2019-02-25T23:10:26.624Z,70.24
2019-02-25T23:12:55.132Z,70.69
2019-02-25T23:15:25.577Z,70.69
2019-02-25T23:17:53.892Z,70.23
2019-02-25T23:20:23.036Z,68.64
2019-02-25T23:22:53.043Z,68.62
2019-02-25T23:25:22.838Z,68.62
2019-02-25T23:27:53.410Z,68.78
2019-02-25T23:30:23.461Z,68.78
2019-02-25T23:32:52.394Z,70.73
2019-02-25T23:35:23.129Z,70.73
2019-02-25T23:37:54.455Z,71.11
2019-02-25T23:40:22.603Z,70.75
2019-02-25T23:42:51.103Z,70.55
2019-02-25T23:45:21.078Z,70.55
2019-02-25T23:47:49.830Z,70.51
2019-02-25T23:50:18.339Z,70.51
2019-02-25T23:52:46.873Z,70.83
2019-02-25T23:55:17.193Z,70.83
2019-02-25T23:57:45.587Z,71.16
